sensor_id;sensor_type;location;lat;lon;timestamp;P1;durP1;ratioP1;P2;durP2;ratioP2
5912;SDS011;2982;42.684;23.356;2023-05-07T00:02:13;9.07;;;8.18;;
5912;SDS011;2982;42.684;23.356;2023-05-07T00:04:38;9.32;;;7.85;;
5912;SDS011;2982;42.684;23.356;2023-05-07T00:07:03;10.65;;;7.93;;
5912;SDS011;2982;42.684;23.356;2023-05-07T00:09:29;9.93;;;8.82;;
5912;SDS011;2982;42.684;23.356;2023-05-07T00:11:54;10.52;;;8.48;;
5912;SDS011;2982;42.684;23.356;2023-05-07T00:14:20;12.95;;;9.48;;
5912;SDS011;2982;42.684;23.356;2023-05-07T00:16:45;10.18;;;8.80;;
5912;SDS011;2982;42.684;23.356;2023-05-07T00:19:10;11.20;;;9.57;;
5912;SDS011;2982;42.684;23.356;2023-05-07T00:21:35;14.43;;;9.40;;
5912;SDS011;2982;42.684;23.356;2023-05-07T00:24:01;14.18;;;10.13;;
5912;SDS011;2982;42.684;23.356;2023-05-07T00:26:26;13.43;;;9.23;;
5912;SDS011;2982;42.684;23.356;2023-05-07T00:28:51;12.20;;;9.60;;
5912;SDS011;2982;42.684;23.356;2023-05-07T00:31:17;12.00;;;9.73;;
5912;SDS011;2982;42.684;23.356;2023-05-07T00:33:42;11.32;;;9.50;;
5912;SDS011;2982;42.684;23.356;2023-05-07T00:36:07;12.02;;;8.82;;
5912;SDS011;2982;42.684;23.356;2023-05-07T00:38:33;12.60;;;9.32;;
5912;SDS011;2982;42.684;23.356;2023-05-07T00:40:58;11.02;;;9.77;;
5912;SDS011;2982;42.684;23.356;2023-05-07T00:43:23;11.82;;;9.73;;
5912;SDS011;2982;42.684;23.356;2023-05-07T00:45:48;11.95;;;9.18;;
5912;SDS011;2982;42.684;23.356;2023-05-07T00:48:14;15.68;;;10.23;;
5912;SDS011;2982;42.684;23.356;2023-05-07T00:50:39;11.40;;;9.60;;
5912;SDS011;2982;42.684;23.356;2023-05-07T00:53:05;15.50;;;10.63;;
5912;SDS011;2982;42.684;23.356;2023-05-07T00:55:32;14.45;;;9.98;;
5912;SDS011;2982;42.684;23.356;2023-05-07T00:57:57;12.85;;;9.43;;
5912;SDS011;2982;42.684;23.356;2023-05-07T01:00:23;12.15;;;9.07;;
5912;SDS011;2982;42.684;23.356;2023-05-07T01:02:48;11.00;;;9.15;;
5912;SDS011;2982;42.684;23.356;2023-05-07T01:05:14;11.27;;;9.13;;
5912;SDS011;2982;42.684;23.356;2023-05-07T01:07:41;12.65;;;10.05;;
5912;SDS011;2982;42.684;23.356;2023-05-07T01:10:07;10.48;;;9.48;;
5912;SDS011;2982;42.684;23.356;2023-05-07T01:12:34;11.93;;;8.98;;
5912;SDS011;2982;42.684;23.356;2023-05-07T01:15:02;11.73;;;8.30;;
5912;SDS011;2982;42.684;23.356;2023-05-07T01:17:28;9.45;;;8.65;;
5912;SDS011;2982;42.684;23.356;2023-05-07T01:19:53;10.10;;;8.95;;
5912;SDS011;2982;42.684;23.356;2023-05-07T01:22:29;8.50;;;7.70;;
5912;SDS011;2982;42.684;23.356;2023-05-07T01:24:55;9.10;;;7.57;;
5912;SDS011;2982;42.684;23.356;2023-05-07T01:27:20;7.93;;;7.25;;
5912;SDS011;2982;42.684;23.356;2023-05-07T01:29:46;8.60;;;7.50;;
5912;SDS011;2982;42.684;23.356;2023-05-07T01:32:11;7.53;;;6.78;;
5912;SDS011;2982;42.684;23.356;2023-05-07T01:34:38;6.57;;;6.03;;
5912;SDS011;2982;42.684;23.356;2023-05-07T01:37:04;8.27;;;6.30;;
5912;SDS011;2982;42.684;23.356;2023-05-07T01:39:30;6.55;;;5.93;;
5912;SDS011;2982;42.684;23.356;2023-05-07T01:41:56;7.72;;;6.78;;
5912;SDS011;2982;42.684;23.356;2023-05-07T01:44:22;6.90;;;6.07;;
5912;SDS011;2982;42.684;23.356;2023-05-07T01:46:48;7.03;;;5.47;;
5912;SDS011;2982;42.684;23.356;2023-05-07T01:49:14;5.75;;;5.32;;
5912;SDS011;2982;42.684;23.356;2023-05-07T01:51:40;5.78;;;5.40;;
5912;SDS011;2982;42.684;23.356;2023-05-07T01:54:06;5.57;;;5.18;;
5912;SDS011;2982;42.684;23.356;2023-05-07T01:56:31;6.18;;;5.60;;
5912;SDS011;2982;42.684;23.356;2023-05-07T01:58:56;9.20;;;5.68;;
5912;SDS011;2982;42.684;23.356;2023-05-07T02:01:22;8.32;;;4.97;;
5912;SDS011;2982;42.684;23.356;2023-05-07T02:03:47;7.45;;;5.85;;
5912;SDS011;2982;42.684;23.356;2023-05-07T02:06:12;6.97;;;6.45;;
5912;SDS011;2982;42.684;23.356;2023-05-07T02:08:38;6.57;;;6.03;;
5912;SDS011;2982;42.684;23.356;2023-05-07T02:11:03;7.80;;;7.10;;
5912;SDS011;2982;42.684;23.356;2023-05-07T02:13:29;7.35;;;6.38;;
5912;SDS011;2982;42.684;23.356;2023-05-07T02:15:56;10.07;;;7.38;;
5912;SDS011;2982;42.684;23.356;2023-05-07T02:18:22;7.32;;;6.20;;
5912;SDS011;2982;42.684;23.356;2023-05-07T02:20:47;7.50;;;6.63;;
5912;SDS011;2982;42.684;23.356;2023-05-07T02:23:14;7.80;;;7.20;;
5912;SDS011;2982;42.684;23.356;2023-05-07T02:25:39;7.53;;;6.93;;
5912;SDS011;2982;42.684;23.356;2023-05-07T02:28:04;7.30;;;6.65;;
5912;SDS011;2982;42.684;23.356;2023-05-07T02:30:31;7.53;;;6.75;;
5912;SDS011;2982;42.684;23.356;2023-05-07T02:32:56;10.55;;;8.27;;
5912;SDS011;2982;42.684;23.356;2023-05-07T02:35:21;11.13;;;7.60;;
5912;SDS011;2982;42.684;23.356;2023-05-07T02:37:48;7.75;;;6.95;;
5912;SDS011;2982;42.684;23.356;2023-05-07T02:40:13;7.25;;;6.75;;
5912;SDS011;2982;42.684;23.356;2023-05-07T02:42:39;8.68;;;7.32;;
5912;SDS011;2982;42.684;23.356;2023-05-07T02:45:04;8.55;;;7.57;;
5912;SDS011;2982;42.684;23.356;2023-05-07T02:47:30;9.27;;;8.25;;
5912;SDS011;2982;42.684;23.356;2023-05-07T02:49:55;10.82;;;9.63;;
5912;SDS011;2982;42.684;23.356;2023-05-07T02:52:21;11.35;;;9.63;;
5912;SDS011;2982;42.684;23.356;2023-05-07T02:54:46;10.30;;;9.40;;
5912;SDS011;2982;42.684;23.356;2023-05-07T02:57:11;11.52;;;9.88;;
5912;SDS011;2982;42.684;23.356;2023-05-07T02:59:37;11.18;;;9.98;;
5912;SDS011;2982;42.684;23.356;2023-05-07T03:02:02;11.60;;;10.50;;
5912;SDS011;2982;42.684;23.356;2023-05-07T03:04:27;11.73;;;10.77;;
5912;SDS011;2982;42.684;23.356;2023-05-07T03:06:52;11.10;;;10.20;;
5912;SDS011;2982;42.684;23.356;2023-05-07T03:09:18;16.42;;;11.65;;
5912;SDS011;2982;42.684;23.356;2023-05-07T03:11:43;11.52;;;9.73;;
5912;SDS011;2982;42.684;23.356;2023-05-07T03:14:08;12.48;;;10.88;;
5912;SDS011;2982;42.684;23.356;2023-05-07T03:16:34;12.02;;;10.88;;
5912;SDS011;2982;42.684;23.356;2023-05-07T03:18:59;12.77;;;11.50;;
5912;SDS011;2982;42.684;23.356;2023-05-07T03:21:24;15.82;;;11.63;;
5912;SDS011;2982;42.684;23.356;2023-05-07T03:23:49;13.75;;;12.35;;
5912;SDS011;2982;42.684;23.356;2023-05-07T03:26:15;16.95;;;12.20;;
5912;SDS011;2982;42.684;23.356;2023-05-07T03:28:40;12.52;;;11.27;;
5912;SDS011;2982;42.684;23.356;2023-05-07T03:31:05;10.98;;;9.98;;
5912;SDS011;2982;42.684;23.356;2023-05-07T03:33:32;13.90;;;11.93;;
5912;SDS011;2982;42.684;23.356;2023-05-07T03:35:58;13.52;;;11.80;;
5912;SDS011;2982;42.684;23.356;2023-05-07T03:38:24;16.55;;;12.25;;
5912;SDS011;2982;42.684;23.356;2023-05-07T03:40:49;12.73;;;11.48;;
5912;SDS011;2982;42.684;23.356;2023-05-07T03:43:14;14.02;;;11.73;;
5912;SDS011;2982;42.684;23.356;2023-05-07T03:45:39;13.32;;;11.95;;
5912;SDS011;2982;42.684;23.356;2023-05-07T03:48:05;13.05;;;11.80;;
5912;SDS011;2982;42.684;23.356;2023-05-07T03:50:30;11.90;;;10.77;;
5912;SDS011;2982;42.684;23.356;2023-05-07T03:52:55;13.80;;;11.82;;
5912;SDS011;2982;42.684;23.356;2023-05-07T03:55:21;12.32;;;10.43;;
5912;SDS011;2982;42.684;23.356;2023-05-07T03:57:46;12.95;;;10.52;;
5912;SDS011;2982;42.684;23.356;2023-05-07T04:00:11;11.40;;;10.48;;
5912;SDS011;2982;42.684;23.356;2023-05-07T04:02:37;12.25;;;11.05;;
5912;SDS011;2982;42.684;23.356;2023-05-07T04:05:02;12.23;;;10.95;;
5912;SDS011;2982;42.684;23.356;2023-05-07T04:07:28;11.75;;;10.60;;
5912;SDS011;2982;42.684;23.356;2023-05-07T04:09:53;12.75;;;10.32;;
5912;SDS011;2982;42.684;23.356;2023-05-07T04:12:18;10.77;;;9.60;;
5912;SDS011;2982;42.684;23.356;2023-05-07T04:14:44;14.70;;;10.82;;
5912;SDS011;2982;42.684;23.356;2023-05-07T04:17:09;19.40;;;10.57;;
5912;SDS011;2982;42.684;23.356;2023-05-07T04:19:35;14.05;;;10.50;;
5912;SDS011;2982;42.684;23.356;2023-05-07T04:22:00;11.55;;;9.70;;
5912;SDS011;2982;42.684;23.356;2023-05-07T04:24:25;10.93;;;9.48;;
5912;SDS011;2982;42.684;23.356;2023-05-07T04:26:51;11.60;;;10.35;;
5912;SDS011;2982;42.684;23.356;2023-05-07T04:29:16;12.88;;;10.32;;
5912;SDS011;2982;42.684;23.356;2023-05-07T04:31:42;10.20;;;9.35;;
5912;SDS011;2982;42.684;23.356;2023-05-07T04:34:07;11.02;;;8.70;;
5912;SDS011;2982;42.684;23.356;2023-05-07T04:36:32;9.45;;;8.52;;
5912;SDS011;2982;42.684;23.356;2023-05-07T04:38:57;10.45;;;8.30;;
5912;SDS011;2982;42.684;23.356;2023-05-07T04:41:23;8.38;;;7.63;;
5912;SDS011;2982;42.684;23.356;2023-05-07T04:43:48;13.27;;;8.25;;
5912;SDS011;2982;42.684;23.356;2023-05-07T04:46:13;12.80;;;8.88;;
5912;SDS011;2982;42.684;23.356;2023-05-07T04:48:38;10.85;;;8.38;;
5912;SDS011;2982;42.684;23.356;2023-05-07T04:51:04;8.75;;;7.97;;
5912;SDS011;2982;42.684;23.356;2023-05-07T04:53:29;8.80;;;7.90;;
5912;SDS011;2982;42.684;23.356;2023-05-07T04:55:55;8.73;;;7.88;;
5912;SDS011;2982;42.684;23.356;2023-05-07T04:58:21;8.38;;;7.40;;
5912;SDS011;2982;42.684;23.356;2023-05-07T05:00:46;8.23;;;7.40;;
5912;SDS011;2982;42.684;23.356;2023-05-07T05:03:11;8.07;;;7.18;;
5912;SDS011;2982;42.684;23.356;2023-05-07T05:05:37;8.73;;;7.90;;
5912;SDS011;2982;42.684;23.356;2023-05-07T05:08:02;8.95;;;7.43;;
5912;SDS011;2982;42.684;23.356;2023-05-07T05:10:27;7.68;;;7.07;;
5912;SDS011;2982;42.684;23.356;2023-05-07T05:12:52;7.97;;;7.38;;
5912;SDS011;2982;42.684;23.356;2023-05-07T05:15:18;8.60;;;7.75;;
5912;SDS011;2982;42.684;23.356;2023-05-07T05:17:43;8.00;;;7.45;;
5912;SDS011;2982;42.684;23.356;2023-05-07T05:20:08;8.57;;;8.07;;
5912;SDS011;2982;42.684;23.356;2023-05-07T05:22:34;8.15;;;7.55;;
5912;SDS011;2982;42.684;23.356;2023-05-07T05:24:59;7.93;;;7.32;;
5912;SDS011;2982;42.684;23.356;2023-05-07T05:27:24;8.75;;;7.82;;
5912;SDS011;2982;42.684;23.356;2023-05-07T05:29:50;8.95;;;8.27;;
5912;SDS011;2982;42.684;23.356;2023-05-07T05:32:15;7.75;;;6.97;;
5912;SDS011;2982;42.684;23.356;2023-05-07T05:34:40;8.15;;;7.45;;
5912;SDS011;2982;42.684;23.356;2023-05-07T05:37:05;8.77;;;7.53;;
5912;SDS011;2982;42.684;23.356;2023-05-07T05:39:31;9.25;;;8.35;;
5912;SDS011;2982;42.684;23.356;2023-05-07T05:41:56;7.88;;;7.38;;
5912;SDS011;2982;42.684;23.356;2023-05-07T05:44:21;9.05;;;8.27;;
5912;SDS011;2982;42.684;23.356;2023-05-07T05:46:46;7.75;;;7.10;;
5912;SDS011;2982;42.684;23.356;2023-05-07T05:49:12;8.30;;;7.50;;
5912;SDS011;2982;42.684;23.356;2023-05-07T05:51:37;8.52;;;7.82;;
5912;SDS011;2982;42.684;23.356;2023-05-07T05:54:02;8.57;;;8.05;;
5912;SDS011;2982;42.684;23.356;2023-05-07T05:56:28;9.52;;;8.73;;
5912;SDS011;2982;42.684;23.356;2023-05-07T05:58:53;8.68;;;7.93;;
5912;SDS011;2982;42.684;23.356;2023-05-07T06:01:18;7.95;;;7.45;;
5912;SDS011;2982;42.684;23.356;2023-05-07T06:03:44;8.88;;;7.93;;
5912;SDS011;2982;42.684;23.356;2023-05-07T06:06:09;9.05;;;8.35;;
5912;SDS011;2982;42.684;23.356;2023-05-07T06:08:34;7.80;;;7.30;;
5912;SDS011;2982;42.684;23.356;2023-05-07T06:11:00;8.50;;;7.53;;
5912;SDS011;2982;42.684;23.356;2023-05-07T06:13:26;7.90;;;7.28;;
5912;SDS011;2982;42.684;23.356;2023-05-07T06:15:52;8.38;;;7.57;;
5912;SDS011;2982;42.684;23.356;2023-05-07T06:18:17;8.65;;;8.00;;
5912;SDS011;2982;42.684;23.356;2023-05-07T06:20:42;8.48;;;7.85;;
5912;SDS011;2982;42.684;23.356;2023-05-07T06:23:07;8.73;;;7.78;;
5912;SDS011;2982;42.684;23.356;2023-05-07T06:25:33;8.00;;;7.25;;
5912;SDS011;2982;42.684;23.356;2023-05-07T06:27:58;7.78;;;7.13;;
5912;SDS011;2982;42.684;23.356;2023-05-07T06:30:23;9.23;;;8.52;;
5912;SDS011;2982;42.684;23.356;2023-05-07T06:32:49;8.32;;;7.50;;
5912;SDS011;2982;42.684;23.356;2023-05-07T06:35:14;8.40;;;7.70;;
5912;SDS011;2982;42.684;23.356;2023-05-07T06:37:40;7.85;;;7.30;;
5912;SDS011;2982;42.684;23.356;2023-05-07T06:40:06;7.95;;;7.28;;
5912;SDS011;2982;42.684;23.356;2023-05-07T06:42:31;9.05;;;8.32;;
5912;SDS011;2982;42.684;23.356;2023-05-07T06:44:57;8.85;;;8.30;;
5912;SDS011;2982;42.684;23.356;2023-05-07T06:47:22;8.80;;;8.00;;
5912;SDS011;2982;42.684;23.356;2023-05-07T06:49:47;8.00;;;7.03;;
5912;SDS011;2982;42.684;23.356;2023-05-07T06:52:12;8.25;;;7.75;;
5912;SDS011;2982;42.684;23.356;2023-05-07T06:54:38;8.60;;;7.97;;
5912;SDS011;2982;42.684;23.356;2023-05-07T06:57:03;7.93;;;7.18;;
5912;SDS011;2982;42.684;23.356;2023-05-07T06:59:28;10.30;;;8.07;;
5912;SDS011;2982;42.684;23.356;2023-05-07T07:01:53;9.70;;;8.80;;
5912;SDS011;2982;42.684;23.356;2023-05-07T07:04:19;10.18;;;9.13;;
5912;SDS011;2982;42.684;23.356;2023-05-07T07:06:45;9.00;;;8.13;;
5912;SDS011;2982;42.684;23.356;2023-05-07T07:09:10;9.80;;;8.93;;
5912;SDS011;2982;42.684;23.356;2023-05-07T07:11:35;9.77;;;8.63;;
5912;SDS011;2982;42.684;23.356;2023-05-07T07:14:01;11.30;;;8.43;;
5912;SDS011;2982;42.684;23.356;2023-05-07T07:16:26;12.77;;;9.85;;
5912;SDS011;2982;42.684;23.356;2023-05-07T07:18:51;11.48;;;9.48;;
5912;SDS011;2982;42.684;23.356;2023-05-07T07:21:16;10.57;;;9.77;;
5912;SDS011;2982;42.684;23.356;2023-05-07T07:23:42;13.60;;;10.23;;
5912;SDS011;2982;42.684;23.356;2023-05-07T07:26:07;10.73;;;9.18;;
5912;SDS011;2982;42.684;23.356;2023-05-07T07:28:32;11.90;;;9.90;;
5912;SDS011;2982;42.684;23.356;2023-05-07T07:30:57;11.48;;;9.82;;
5912;SDS011;2982;42.684;23.356;2023-05-07T07:33:23;12.07;;;9.68;;
5912;SDS011;2982;42.684;23.356;2023-05-07T07:35:48;11.45;;;10.40;;
5912;SDS011;2982;42.684;23.356;2023-05-07T07:38:13;11.85;;;10.77;;
5912;SDS011;2982;42.684;23.356;2023-05-07T07:40:38;11.43;;;10.00;;
5912;SDS011;2982;42.684;23.356;2023-05-07T07:43:04;10.02;;;9.18;;
5912;SDS011;2982;42.684;23.356;2023-05-07T07:45:29;15.18;;;9.30;;
5912;SDS011;2982;42.684;23.356;2023-05-07T07:47:54;10.32;;;9.43;;
5912;SDS011;2982;42.684;23.356;2023-05-07T07:50:19;11.50;;;10.27;;
5912;SDS011;2982;42.684;23.356;2023-05-07T07:52:45;10.30;;;9.23;;
5912;SDS011;2982;42.684;23.356;2023-05-07T07:55:10;10.40;;;9.50;;
5912;SDS011;2982;42.684;23.356;2023-05-07T07:57:35;10.05;;;9.05;;
5912;SDS011;2982;42.684;23.356;2023-05-07T08:00:01;10.10;;;8.82;;
5912;SDS011;2982;42.684;23.356;2023-05-07T08:02:26;12.52;;;8.90;;
5912;SDS011;2982;42.684;23.356;2023-05-07T08:04:52;11.27;;;9.40;;
5912;SDS011;2982;42.684;23.356;2023-05-07T08:07:17;11.43;;;9.13;;
5912;SDS011;2982;42.684;23.356;2023-05-07T08:09:42;10.52;;;9.43;;
5912;SDS011;2982;42.684;23.356;2023-05-07T08:12:07;9.70;;;8.70;;
5912;SDS011;2982;42.684;23.356;2023-05-07T08:14:33;10.18;;;9.13;;
5912;SDS011;2982;42.684;23.356;2023-05-07T08:16:59;9.52;;;8.60;;
5912;SDS011;2982;42.684;23.356;2023-05-07T08:19:24;9.43;;;8.38;;
5912;SDS011;2982;42.684;23.356;2023-05-07T08:21:49;14.43;;;8.00;;
5912;SDS011;2982;42.684;23.356;2023-05-07T08:24:15;8.32;;;7.55;;
5912;SDS011;2982;42.684;23.356;2023-05-07T08:26:40;19.58;;;8.05;;
5912;SDS011;2982;42.684;23.356;2023-05-07T08:29:06;7.47;;;6.78;;
5912;SDS011;2982;42.684;23.356;2023-05-07T08:31:31;8.10;;;7.30;;
5912;SDS011;2982;42.684;23.356;2023-05-07T08:33:57;8.27;;;7.07;;
5912;SDS011;2982;42.684;23.356;2023-05-07T08:36:23;7.20;;;6.60;;
5912;SDS011;2982;42.684;23.356;2023-05-07T08:38:49;6.47;;;5.90;;
5912;SDS011;2982;42.684;23.356;2023-05-07T08:41:14;6.55;;;5.85;;
5912;SDS011;2982;42.684;23.356;2023-05-07T08:43:40;8.35;;;6.47;;
5912;SDS011;2982;42.684;23.356;2023-05-07T08:46:06;7.18;;;6.38;;
5912;SDS011;2982;42.684;23.356;2023-05-07T08:48:34;7.28;;;6.65;;
5912;SDS011;2982;42.684;23.356;2023-05-07T08:51:00;7.80;;;7.30;;
5912;SDS011;2982;42.684;23.356;2023-05-07T08:53:26;9.38;;;6.80;;
5912;SDS011;2982;42.684;23.356;2023-05-07T08:55:51;6.78;;;6.30;;
5912;SDS011;2982;42.684;23.356;2023-05-07T08:58:18;7.95;;;7.38;;
5912;SDS011;2982;42.684;23.356;2023-05-07T09:00:43;6.30;;;5.15;;
5912;SDS011;2982;42.684;23.356;2023-05-07T09:03:08;6.10;;;4.85;;
5912;SDS011;2982;42.684;23.356;2023-05-07T09:05:34;5.78;;;5.25;;
5912;SDS011;2982;42.684;23.356;2023-05-07T09:07:59;6.45;;;5.60;;
5912;SDS011;2982;42.684;23.356;2023-05-07T09:10:26;5.75;;;5.25;;
5912;SDS011;2982;42.684;23.356;2023-05-07T09:12:51;6.20;;;5.00;;
5912;SDS011;2982;42.684;23.356;2023-05-07T09:15:17;6.82;;;5.22;;
5912;SDS011;2982;42.684;23.356;2023-05-07T09:17:43;5.40;;;4.95;;
5912;SDS011;2982;42.684;23.356;2023-05-07T09:20:08;6.95;;;5.05;;
5912;SDS011;2982;42.684;23.356;2023-05-07T09:22:37;6.65;;;6.07;;
5912;SDS011;2982;42.684;23.356;2023-05-07T09:25:03;5.05;;;4.75;;
5912;SDS011;2982;42.684;23.356;2023-05-07T09:27:29;7.45;;;5.13;;
5912;SDS011;2982;42.684;23.356;2023-05-07T09:29:55;7.55;;;5.00;;
5912;SDS011;2982;42.684;23.356;2023-05-07T09:32:20;4.50;;;4.20;;
5912;SDS011;2982;42.684;23.356;2023-05-07T09:34:45;5.28;;;4.75;;
5912;SDS011;2982;42.684;23.356;2023-05-07T09:37:12;4.50;;;4.10;;
5912;SDS011;2982;42.684;23.356;2023-05-07T09:39:44;7.93;;;3.55;;
5912;SDS011;2982;42.684;23.356;2023-05-07T09:42:11;3.78;;;3.47;;
5912;SDS011;2982;42.684;23.356;2023-05-07T09:44:37;4.15;;;3.85;;
5912;SDS011;2982;42.684;23.356;2023-05-07T09:47:07;3.78;;;3.58;;
5912;SDS011;2982;42.684;23.356;2023-05-07T09:49:36;4.85;;;4.38;;
5912;SDS011;2982;42.684;23.356;2023-05-07T09:52:04;4.00;;;3.70;;
5912;SDS011;2982;42.684;23.356;2023-05-07T09:54:30;3.25;;;2.85;;
5912;SDS011;2982;42.684;23.356;2023-05-07T09:56:56;3.92;;;3.63;;
5912;SDS011;2982;42.684;23.356;2023-05-07T09:59:21;3.92;;;3.45;;
5912;SDS011;2982;42.684;23.356;2023-05-07T10:01:47;4.07;;;3.33;;
5912;SDS011;2982;42.684;23.356;2023-05-07T10:04:14;5.43;;;3.25;;
5912;SDS011;2982;42.684;23.356;2023-05-07T10:06:39;3.35;;;3.05;;
5912;SDS011;2982;42.684;23.356;2023-05-07T10:09:05;4.00;;;3.00;;
5912;SDS011;2982;42.684;23.356;2023-05-07T10:11:32;2.60;;;2.40;;
5912;SDS011;2982;42.684;23.356;2023-05-07T10:13:58;3.28;;;2.97;;
5912;SDS011;2982;42.684;23.356;2023-05-07T10:16:23;3.83;;;3.38;;
5912;SDS011;2982;42.684;23.356;2023-05-07T10:18:51;3.28;;;3.08;;
5912;SDS011;2982;42.684;23.356;2023-05-07T10:21:18;3.25;;;3.05;;
5912;SDS011;2982;42.684;23.356;2023-05-07T10:23:50;4.85;;;2.80;;
5912;SDS011;2982;42.684;23.356;2023-05-07T10:26:20;3.10;;;2.80;;
5912;SDS011;2982;42.684;23.356;2023-05-07T10:28:49;2.60;;;2.40;;
5912;SDS011;2982;42.684;23.356;2023-05-07T10:34:00;3.47;;;3.25;;
5912;SDS011;2982;42.684;23.356;2023-05-07T10:36:31;3.47;;;2.90;;
5912;SDS011;2982;42.684;23.356;2023-05-07T10:38:57;3.53;;;2.58;;
5912;SDS011;2982;42.684;23.356;2023-05-07T10:41:22;3.80;;;2.20;;
5912;SDS011;2982;42.684;23.356;2023-05-07T10:43:47;2.80;;;2.60;;
5912;SDS011;2982;42.684;23.356;2023-05-07T10:46:19;2.90;;;2.70;;
5912;SDS011;2982;42.684;23.356;2023-05-07T10:51:26;3.38;;;3.17;;
5912;SDS011;2982;42.684;23.356;2023-05-07T10:56:38;6.05;;;3.10;;
5912;SDS011;2982;42.684;23.356;2023-05-07T11:01:58;3.67;;;3.33;;
5912;SDS011;2982;42.684;23.356;2023-05-07T11:04:33;2.97;;;2.78;;
5912;SDS011;2982;42.684;23.356;2023-05-07T11:09:53;4.20;;;2.78;;
5912;SDS011;2982;42.684;23.356;2023-05-07T11:15:00;3.05;;;2.75;;
5912;SDS011;2982;42.684;23.356;2023-05-07T11:17:26;2.88;;;2.67;;
5912;SDS011;2982;42.684;23.356;2023-05-07T11:19:52;2.78;;;2.58;;
5912;SDS011;2982;42.684;23.356;2023-05-07T11:24:55;4.13;;;2.80;;
5912;SDS011;2982;42.684;23.356;2023-05-07T11:27:23;3.50;;;2.45;;
5912;SDS011;2982;42.684;23.356;2023-05-07T11:29:50;3.47;;;2.92;;
5912;SDS011;2982;42.684;23.356;2023-05-07T11:32:15;3.03;;;2.53;;
5912;SDS011;2982;42.684;23.356;2023-05-07T11:34:47;3.42;;;3.17;;
5912;SDS011;2982;42.684;23.356;2023-05-07T11:37:19;2.90;;;2.70;;
5912;SDS011;2982;42.684;23.356;2023-05-07T11:39:45;3.05;;;2.60;;
5912;SDS011;2982;42.684;23.356;2023-05-07T11:44:55;2.35;;;2.25;;
5912;SDS011;2982;42.684;23.356;2023-05-07T11:47:21;3.10;;;2.88;;
5912;SDS011;2982;42.684;23.356;2023-05-07T11:49:50;2.72;;;2.63;;
5912;SDS011;2982;42.684;23.356;2023-05-07T11:52:17;5.55;;;2.65;;
5912;SDS011;2982;42.684;23.356;2023-05-07T11:54:52;2.60;;;2.42;;
5912;SDS011;2982;42.684;23.356;2023-05-07T11:57:19;3.03;;;2.50;;
5912;SDS011;2982;42.684;23.356;2023-05-07T11:59:44;2.88;;;2.60;;
5912;SDS011;2982;42.684;23.356;2023-05-07T12:02:10;5.43;;;2.40;;
5912;SDS011;2982;42.684;23.356;2023-05-07T12:04:35;3.13;;;2.83;;
5912;SDS011;2982;42.684;23.356;2023-05-07T12:07:02;5.57;;;2.40;;
5912;SDS011;2982;42.684;23.356;2023-05-07T12:09:28;3.58;;;3.30;;
5912;SDS011;2982;42.684;23.356;2023-05-07T12:11:53;3.30;;;3.05;;
5912;SDS011;2982;42.684;23.356;2023-05-07T12:14:18;10.85;;;3.53;;
5912;SDS011;2982;42.684;23.356;2023-05-07T12:16:44;6.13;;;3.15;;
5912;SDS011;2982;42.684;23.356;2023-05-07T12:19:10;2.53;;;2.33;;
5912;SDS011;2982;42.684;23.356;2023-05-07T12:21:36;3.85;;;3.55;;
5912;SDS011;2982;42.684;23.356;2023-05-07T12:24:01;3.17;;;2.67;;
5912;SDS011;2982;42.684;23.356;2023-05-07T12:26:26;3.17;;;2.60;;
5912;SDS011;2982;42.684;23.356;2023-05-07T12:28:52;2.83;;;2.60;;
5912;SDS011;2982;42.684;23.356;2023-05-07T12:31:17;3.83;;;2.33;;
5912;SDS011;2982;42.684;23.356;2023-05-07T12:33:42;2.35;;;2.15;;
5912;SDS011;2982;42.684;23.356;2023-05-07T12:36:08;2.80;;;2.60;;
5912;SDS011;2982;42.684;23.356;2023-05-07T12:38:37;5.97;;;2.70;;
5912;SDS011;2982;42.684;23.356;2023-05-07T12:41:04;3.05;;;2.10;;
5912;SDS011;2982;42.684;23.356;2023-05-07T12:43:32;2.40;;;1.98;;
5912;SDS011;2982;42.684;23.356;2023-05-07T12:45:59;3.50;;;2.20;;
5912;SDS011;2982;42.684;23.356;2023-05-07T12:48:26;3.67;;;1.80;;
5912;SDS011;2982;42.684;23.356;2023-05-07T12:50:54;3.72;;;2.70;;
5912;SDS011;2982;42.684;23.356;2023-05-07T12:53:25;1.67;;;1.45;;
5912;SDS011;2982;42.684;23.356;2023-05-07T12:55:52;6.65;;;1.83;;
5912;SDS011;2982;42.684;23.356;2023-05-07T12:58:24;3.83;;;1.95;;
5912;SDS011;2982;42.684;23.356;2023-05-07T13:00:53;1.70;;;1.60;;
5912;SDS011;2982;42.684;23.356;2023-05-07T13:03:24;1.73;;;1.63;;
5912;SDS011;2982;42.684;23.356;2023-05-07T13:05:54;2.08;;;1.95;;
5912;SDS011;2982;42.684;23.356;2023-05-07T13:08:27;2.05;;;1.95;;
5912;SDS011;2982;42.684;23.356;2023-05-07T13:10:54;6.00;;;2.42;;
5912;SDS011;2982;42.684;23.356;2023-05-07T13:13:20;3.13;;;1.67;;
5912;SDS011;2982;42.684;23.356;2023-05-07T13:15:46;2.20;;;1.80;;
5912;SDS011;2982;42.684;23.356;2023-05-07T13:18:12;2.83;;;1.92;;
5912;SDS011;2982;42.684;23.356;2023-05-07T13:20:37;1.60;;;1.45;;
5912;SDS011;2982;42.684;23.356;2023-05-07T13:23:03;1.95;;;1.30;;
5912;SDS011;2982;42.684;23.356;2023-05-07T13:25:28;2.03;;;1.92;;
5912;SDS011;2982;42.684;23.356;2023-05-07T13:27:54;3.42;;;2.25;;
5912;SDS011;2982;42.684;23.356;2023-05-07T13:30:19;3.67;;;1.80;;
5912;SDS011;2982;42.684;23.356;2023-05-07T13:32:44;2.40;;;1.80;;
5912;SDS011;2982;42.684;23.356;2023-05-07T13:35:09;6.25;;;2.10;;
5912;SDS011;2982;42.684;23.356;2023-05-07T13:37:35;2.35;;;2.15;;
5912;SDS011;2982;42.684;23.356;2023-05-07T13:40:00;1.83;;;1.73;;
5912;SDS011;2982;42.684;23.356;2023-05-07T13:42:25;1.90;;;1.63;;
5912;SDS011;2982;42.684;23.356;2023-05-07T13:44:50;2.53;;;1.60;;
5912;SDS011;2982;42.684;23.356;2023-05-07T13:47:16;3.38;;;1.80;;
5912;SDS011;2982;42.684;23.356;2023-05-07T13:49:41;2.00;;;1.90;;
5912;SDS011;2982;42.684;23.356;2023-05-07T13:52:06;1.88;;;1.70;;
5912;SDS011;2982;42.684;23.356;2023-05-07T13:54:31;2.55;;;2.30;;
5912;SDS011;2982;42.684;23.356;2023-05-07T13:56:57;3.08;;;1.80;;
5912;SDS011;2982;42.684;23.356;2023-05-07T13:59:22;2.10;;;1.90;;
5912;SDS011;2982;42.684;23.356;2023-05-07T14:01:47;2.20;;;2.00;;
5912;SDS011;2982;42.684;23.356;2023-05-07T14:04:13;2.58;;;1.73;;
5912;SDS011;2982;42.684;23.356;2023-05-07T14:06:38;1.60;;;1.50;;
5912;SDS011;2982;42.684;23.356;2023-05-07T14:09:03;1.88;;;1.73;;
5912;SDS011;2982;42.684;23.356;2023-05-07T14:11:28;3.33;;;2.08;;
5912;SDS011;2982;42.684;23.356;2023-05-07T14:13:53;1.75;;;1.65;;
5912;SDS011;2982;42.684;23.356;2023-05-07T14:16:19;3.65;;;1.77;;
5912;SDS011;2982;42.684;23.356;2023-05-07T14:18:44;1.95;;;1.85;;
5912;SDS011;2982;42.684;23.356;2023-05-07T14:21:09;2.20;;;2.00;;
5912;SDS011;2982;42.684;23.356;2023-05-07T14:23:34;3.08;;;2.03;;
5912;SDS011;2982;42.684;23.356;2023-05-07T14:26:00;3.58;;;2.30;;
5912;SDS011;2982;42.684;23.356;2023-05-07T14:28:25;3.65;;;2.30;;
5912;SDS011;2982;42.684;23.356;2023-05-07T14:30:50;2.97;;;1.98;;
5912;SDS011;2982;42.684;23.356;2023-05-07T14:33:16;1.90;;;1.80;;
5912;SDS011;2982;42.684;23.356;2023-05-07T14:35:42;2.65;;;1.73;;
5912;SDS011;2982;42.684;23.356;2023-05-07T14:38:07;1.90;;;1.80;;
5912;SDS011;2982;42.684;23.356;2023-05-07T14:40:32;2.20;;;2.00;;
5912;SDS011;2982;42.684;23.356;2023-05-07T14:42:57;2.40;;;2.08;;
5912;SDS011;2982;42.684;23.356;2023-05-07T14:45:23;1.98;;;1.77;;
5912;SDS011;2982;42.684;23.356;2023-05-07T14:47:48;2.22;;;2.10;;
5912;SDS011;2982;42.684;23.356;2023-05-07T14:50:13;5.75;;;2.00;;
5912;SDS011;2982;42.684;23.356;2023-05-07T14:52:38;3.10;;;2.30;;
5912;SDS011;2982;42.684;23.356;2023-05-07T14:55:04;4.10;;;2.00;;
5912;SDS011;2982;42.684;23.356;2023-05-07T14:57:29;2.20;;;2.00;;
5912;SDS011;2982;42.684;23.356;2023-05-07T14:59:55;2.05;;;1.95;;
5912;SDS011;2982;42.684;23.356;2023-05-07T15:02:20;4.82;;;2.13;;
5912;SDS011;2982;42.684;23.356;2023-05-07T15:04:46;2.08;;;1.90;;
5912;SDS011;2982;42.684;23.356;2023-05-07T15:07:11;2.42;;;2.22;;
5912;SDS011;2982;42.684;23.356;2023-05-07T15:09:43;4.07;;;2.08;;